Latest Weather Observations for Creal Reef

IDQ60801

Issued at 7:05 pm EST Tuesday 2 September 2014 (issued every 30 minutes, with the page automatically refreshed every 10 minutes)

About weather observations | Map of weather stations | Latest weather observations for QLD | Other Formats
Station Details ID: 200736 Name: CREAL REEF Lat: -20.53 Lon: 150.38 Height: 1.7 m
Data from the previous 72 hours. | See also: Recent months for locations in Queensland
Date/Time
EST
Temp
°C
App
Temp
°C
Dew
Point
Rel
Hum
%
Delta-T
°C
Wind Press
QNH
hPa
Press
MSL
hPa
Rain
since 9 am
mm
Dir
 
Spd
km/h
Gust
km/h
Spd
kts
Gust
kts
02/07:00pm 21.7 - - - - N 24 26 13 14 1013.8 - -
02/06:30pm 21.6 - - - - N 22 24 12 13 1013.6 - -
02/06:20pm 21.5 - - - - N 20 - 11 - - 1013.5 -
02/06:00pm 21.4 - - - - NNW 19 22 10 12 1013.8 - -
02/05:30pm 21.7 - - - - NNW 19 20 10 11 1013.7 - -
02/05:20pm 21.6 - - - - N 19 - 10 - - 1013.6 -
02/05:00pm 21.6 - - - - NNW 19 22 10 12 1013.5 - -
02/04:30pm 21.6 - - - - NNW 19 22 10 12 1013.4 - -
02/04:20pm 22.0 - - - - NNW 17 - 9 - - 1013.4 -
02/04:00pm 21.8 - - - - NNW 17 20 9 11 1013.6 - -
02/03:30pm 21.8 - - - - NW 15 19 8 10 1013.7 - -
02/03:20pm 21.7 - - - - NW 17 - 9 - - 1013.6 -
02/03:00pm 21.7 - - - - NW 17 20 9 11 1013.8 - -
02/02:30pm 21.7 - - - - NW 17 20 9 11 1014.1 - -
02/02:20pm 21.9 - - - - NW 15 - 8 - - 1014.0 -
02/02:00pm 21.8 - - - - NW 17 19 9 10 1014.4 - -
02/01:30pm 21.7 - - - - NW 13 15 7 8 1014.8 - -
02/01:20pm 21.6 - - - - NW 13 - 7 - - 1014.8 -
02/01:00pm 21.6 - - - - NNW 11 15 6 8 1015.1 - -
02/12:30pm 21.7 - - - - NNW 11 15 6 8 1015.6 - -
02/12:20pm 21.6 - - - - NW 11 - 6 - - 1015.6 -
02/12:00pm 21.6 - - - - NW 9 11 5 6 1016.0 - -
02/11:30am 22.0 - - - - W 9 11 5 6 1016.6 - -
02/11:20am 22.3 - - - - WNW 7 - 4 - - 1016.7 -
02/11:00am 22.7 - - - - W 7 13 4 7 1017.1 - -
02/10:30am 22.9 - - - - W 7 9 4 5 1017.6 - -
02/10:20am 23.0 - - - - W 6 - 3 - - 1017.5 -
02/10:00am 23.3 - - - - W 6 7 3 4 1017.8 - -
02/09:30am 23.3 - - - - SW 4 7 2 4 1017.9 - -
02/09:20am 23.4 - - - - SW 4 0 2 0 1017.8 1017.7 -
02/09:00am 23.1 - - - - SW 6 9 3 5 1017.9 - -
02/08:30am 22.5 - - - - SW 7 7 4 4 1017.9 - -
02/08:20am 22.3 - - - - SSW 7 - 4 - - 1017.9 -
02/08:00am 22.2 - - - - SSW 7 11 4 6 1018.0 - -
02/07:30am 21.9 - - - - SW 7 9 4 5 1017.6 - -
02/07:20am 21.5 - - - - S 7 - 4 - - 1017.5 -
02/07:00am 21.3 - - - - SSW 7 7 4 4 1017.4 - -
02/06:30am 20.8 - - - - SSW 7 9 4 5 1017.2 - -
02/06:20am 20.7 - - - - S 7 - 4 - - 1017.0 -
02/06:00am 20.7 - - - - S 7 9 4 5 1017.0 - -
02/05:30am 20.6 - - - - S 6 7 3 4 1017.0 - -
02/05:20am 20.6 - - - - SSW 6 - 3 - - 1016.8 -
02/05:00am 20.7 - - - - S 2 7 1 4 1016.8 - -
02/04:30am 20.7 - - - - CALM 0 0 0 0 1016.6 - -
02/04:20am 20.7 - - - - SSE 2 - 1 - - 1016.6 -
02/04:00am 20.8 - - - - SSW 6 7 3 4 1017.0 - -
02/03:30am 20.8 - - - - SE 4 6 2 3 1016.9 - -
02/03:20am 20.9 - - - - ESE 4 - 2 - - 1016.8 -
02/03:00am 20.9 - - - - E 9 11 5 6 1016.7 - -
02/02:30am 21.0 - - - - E 11 13 6 7 1016.9 - -
02/02:20am 21.0 - - - - ENE 11 - 6 - - 1016.8 -
02/02:00am 21.0 - - - - E 15 17 8 9 1017.0 - -
02/01:30am 21.1 - - - - E 15 19 8 10 1017.6 - -
02/01:20am 20.9 - - - - E 17 - 9 - - 1017.3 -
02/01:00am 20.9 - - - - E 15 19 8 10 1017.3 - -
02/12:30am 21.1 - - - - ESE 15 19 8 10 1017.3 - -
02/12:20am 21.1 - - - - ESE 17 - 9 - - 1017.2 -
02/12:00am 21.0 - - - - SE 17 19 9 10 1017.5 - -
 
Date/Time
EST
Temp
°C
App
Temp
°C
Dew
Point
Rel
Hum
%
Delta-T
°C
Wind Press
QNH
hPa
Press
MSL
hPa
Rain
since 9 am
mm
Dir
 
Spd
km/h
Gust
km/h
Spd
kts
Gust
kts
01/11:30pm 20.9 - - - - SSE 17 20 9 11 1017.9 - -
01/11:20pm 21.1 - - - - SE 17 - 9 - - 1017.8 -
01/11:00pm 20.9 - - - - SE 19 20 10 11 1017.9 - -
01/10:30pm 21.1 - - - - SE 17 20 9 11 1017.9 - -
01/10:20pm 20.9 - - - - SSE 17 - 9 - - 1017.7 -
01/10:00pm 21.0 - - - - SSE 17 20 9 11 1017.9 - -
01/09:30pm 21.2 - - - - SE 15 17 8 9 1018.2 - -
01/09:20pm 21.3 - - - - SE 15 - 8 - - 1018.0 -
01/09:00pm 21.1 - - - - SE 15 15 8 8 1018.0 - -
01/08:30pm 21.1 - - - - SSE 15 19 8 10 1018.0 - -
01/08:20pm 21.1 - - - - SE 15 - 8 - - 1018.0 -
01/08:00pm 21.2 - - - - SE 17 19 9 10 1017.8 - -
01/07:30pm 21.2 - - - - SE 17 20 9 11 1017.5 - -
01/07:20pm 21.1 - - - - SE 19 - 10 - - 1017.4 -
01/07:00pm 21.2 - - - - SE 19 22 10 12 1017.5 - -
01/06:30pm 21.2 - - - - SE 17 20 9 11 1017.3 - -
01/06:20pm 21.2 - - - - SE 19 - 10 - - 1017.0 -
01/06:00pm 21.1 - - - - SE 19 20 10 11 1016.7 - -
01/05:30pm 21.2 - - - - SSE 17 20 9 11 1016.5 - -
01/05:20pm 21.2 - - - - SSE 17 - 9 - - 1016.4 -
01/05:00pm 21.2 - - - - SSE 19 20 10 11 1016.6 - -
01/04:30pm 21.4 - - - - SSE 17 20 9 11 1016.4 - -
01/04:20pm 21.5 - - - - SSE 17 - 9 - - 1016.2 -
01/04:00pm 21.6 - - - - SSE 17 20 9 11 1016.3 - -
01/03:30pm 21.7 - - - - S 15 19 8 10 1016.3 - -
01/03:20pm 21.7 - - - - S 17 - 9 - - 1016.3 -
01/03:00pm 21.7 - - - - S 17 20 9 11 1016.5 - -
01/02:30pm 21.7 - - - - SSE 15 19 8 10 1016.5 - -
01/02:20pm 21.7 - - - - S 15 - 8 - - 1016.3 -
01/02:00pm 21.8 - - - - S 17 19 9 10 1016.6 - -
01/01:30pm 21.9 - - - - S 17 19 9 10 1017.1 - -
01/01:20pm 21.9 - - - - S 15 - 8 - - 1017.2 -
01/01:00pm 22.1 - - - - SSE 11 15 6 8 1017.5 - -
01/12:30pm 22.3 - - - - SE 9 13 5 7 1018.0 - -
01/12:20pm 22.2 - - - - E 13 - 7 - - 1017.6 -
01/12:00pm 22.0 - - - - ESE 17 19 9 10 1017.7 - -
01/11:30am 22.0 - - - - E 15 19 8 10 1017.9 - -
01/11:20am 22.0 - - - - ESE 15 - 8 - - 1018.1 -
01/11:00am 21.9 - - - - ESE 13 17 7 9 1018.8 - -
01/10:30am 21.8 - - - - ESE 17 24 9 13 1019.2 - -
01/10:20am 21.8 - - - - ESE 19 - 10 - - 1019.2 -
01/10:00am 21.7 - - - - ESE 19 24 10 13 1019.5 - -
01/09:30am 21.7 - - - - ESE 19 24 10 13 1019.5 - -
01/09:20am 21.6 - - - - SE 19 - 10 - - 1019.5 -
01/09:00am 21.6 - - - - SE 22 26 12 14 1019.4 - -
01/08:30am 21.5 - - - - ESE 19 24 10 13 1019.0 - -
01/08:20am 21.4 - - - - ESE 20 - 11 - - 1018.7 -
01/08:00am 21.5 - - - - ESE 19 26 10 14 1018.5 - -
01/07:30am 21.3 - - - - ESE 20 24 11 13 1018.2 - -
01/07:20am 21.2 - - - - ESE 20 - 11 - - 1018.0 -
01/07:00am 21.2 - - - - ESE 19 24 10 13 1017.9 - -
01/06:30am 21.0 - - - - ESE 17 20 9 11 1017.6 - -
01/06:20am 20.9 - - - - ESE 19 - 10 - - 1017.4 -
01/06:00am 20.8 - - - - ESE 17 22 9 12 1017.4 - -
01/05:30am 20.9 - - - - ESE 17 20 9 11 1017.3 - -
01/05:20am 21.0 - - - - SE 19 - 10 - - 1017.2 -
01/05:00am 20.9 - - - - ESE 17 20 9 11 1017.2 - -
01/04:30am 20.9 - - - - ESE 17 20 9 11 1017.0 - -
01/04:20am 20.9 - - - - ESE 15 - 8 - - 1016.9 -
01/04:00am 20.9 - - - - ESE 13 15 7 8 1017.1 - -
01/03:30am 20.9 - - - - ESE 15 19 8 10 1017.0 - -
01/03:20am 20.9 - - - - ESE 17 - 9 - - 1016.8 -
01/03:00am 20.9 - - - - E 17 20 9 11 1016.8 - -
01/02:30am 20.9 - - - - E 19 22 10 12 1016.8 - -
01/02:20am 21.0 - - - - E 19 - 10 - - 1016.7 -
01/02:00am 21.1 - - - - E 20 22 11 12 1017.0 - -
01/01:30am 21.0 - - - - E 20 24 11 13 1017.1 - -
01/01:20am 21.0 - - - - E 20 - 11 - - 1017.0 -
01/01:00am 21.0 - - - - E 22 28 12 15 1017.2 - -
01/12:30am 21.1 - - - - E 26 30 14 16 1017.1 - -
01/12:20am 21.0 - - - - ENE 26 - 14 - - 1017.1 -
01/12:00am 21.0 - - - - ENE 26 32 14 17 1017.4 - -
 
Date/Time
EST
Temp
°C
App
Temp
°C
Dew
Point
Rel
Hum
%
Delta-T
°C
Wind Press
QNH
hPa
Press
MSL
hPa
Rain
since 9 am
mm
Dir
 
Spd
km/h
Gust
km/h
Spd
kts
Gust
kts
31/11:30pm 21.2 - - - - E 26 32 14 17 1017.7 - -
31/11:20pm 21.1 - - - - E 26 - 14 - - 1017.6 -
31/11:00pm 21.1 - - - - E 26 30 14 16 1017.8 - -
31/10:30pm 21.0 - - - - E 26 32 14 17 1018.0 - -
31/10:20pm 21.0 - - - - E 26 - 14 - - 1017.9 -
31/10:00pm 21.0 - - - - E 26 30 14 16 1017.9 - -
31/09:30pm 21.0 - - - - E 26 28 14 15 1017.8 - -
31/09:20pm 21.0 - - - - E 26 - 14 - - 1017.7 -
31/09:00pm 21.0 - - - - E 20 28 11 15 1018.1 - -
31/08:30pm 21.0 - - - - E 20 24 11 13 1018.1 - -
31/08:20pm 21.1 - - - - E 19 - 10 - - 1018.0 -
31/08:00pm 21.1 - - - - ESE 19 24 10 13 1017.9 - -
31/07:30pm 21.0 - - - - E 19 24 10 13 1017.5 - -
31/07:20pm 21.0 - - - - ESE 19 - 10 - - 1017.3 -
31/07:00pm 21.1 - - - - ESE 19 24 10 13 1017.2 - -
31/06:30pm 21.0 - - - - ESE 20 24 11 13 1016.7 - -
31/06:20pm 21.0 - - - - ESE 19 - 10 - - 1016.5 -
31/06:00pm 21.0 - - - - ESE 20 24 11 13 1016.3 - -
31/05:30pm 21.2 - - - - ESE 20 26 11 14 1016.0 - -
31/05:20pm 21.2 - - - - SE 20 - 11 - - 1015.9 -
31/05:00pm 21.2 - - - - ESE 20 24 11 13 1015.9 - -
31/04:30pm 21.3 - - - - SE 20 26 11 14 1015.8 - -
31/04:20pm 21.3 - - - - SE 20 - 11 - - 1015.7 -
31/04:00pm 21.3 - - - - SE 20 26 11 14 1015.7 - -
31/03:30pm 21.3 - - - - SSE 19 24 10 13 1015.7 - -
31/03:20pm 21.4 - - - - SSE 19 - 10 - - 1015.6 -
31/03:00pm 21.3 - - - - SSE 19 24 10 13 1015.8 - -
31/02:30pm 21.4 - - - - SSE 19 22 10 12 1016.1 - -
31/02:20pm 21.6 - - - - SSE 19 - 10 - - 1016.1 -
31/02:00pm 21.5 - - - - SSE 19 24 10 13 1016.3 - -
31/01:30pm 21.6 - - - - SSE 19 24 10 13 1016.4 - -
31/01:20pm 21.5 - - - - SSE 19 - 10 - - 1016.4 -
31/01:00pm 21.5 - - - - SSE 19 24 10 13 1016.8 - -
31/12:30pm 21.6 - - - - SSE 20 26 11 14 1017.1 - -
31/12:20pm 21.7 - - - - SSE 20 - 11 - - 1017.1 -
31/12:00pm 21.6 - - - - SSE 19 26 10 14 1017.4 - -
31/11:30am 21.7 - - - - SSE 19 24 10 13 1017.6 - -
31/11:20am 21.8 - - - - SSE 19 - 10 - - 1017.6 -
31/11:00am 21.6 - - - - SE 20 26 11 14 1017.9 - -
31/10:30am 21.7 - - - - SE 17 22 9 12 1018.4 - -
31/10:20am 21.7 - - - - SE 19 - 10 - - 1018.4 -
31/10:00am 21.7 - - - - SE 20 26 11 14 1018.7 - -
31/09:30am 21.6 - - - - SE 20 26 11 14 1018.9 - -
31/09:20am 21.6 - - - - ESE 20 - 11 - - 1018.8 -
31/09:00am 21.7 - - - - ESE 20 24 11 13 1018.9 - -
31/08:30am 21.7 - - - - SE 20 24 11 13 1018.8 - -
31/08:20am 21.7 - - - - SE 20 - 11 - - 1018.7 -
31/08:00am 21.7 - - - - SE 19 24 10 13 1018.5 - -
31/07:30am 21.6 - - - - SE 20 24 11 13 1018.2 - -
31/07:20am 21.6 - - - - SE 20 - 11 - - 1018.0 -
31/07:00am 21.5 - - - - SE 20 24 11 13 1017.8 - -
31/06:30am 21.4 - - - - SE 20 24 11 13 1017.4 - -
31/06:20am 21.3 - - - - SE 20 - 11 - - 1017.2 -
31/06:00am 21.3 - - - - SE 20 24 11 13 1017.1 - -
31/05:30am 21.3 - - - - ESE 19 20 10 11 1016.6 - -
31/05:20am 21.3 - - - - ESE 17 - 9 - - 1016.4 -
31/05:00am 21.1 - - - - ESE 15 19 8 10 1016.4 - -
31/04:30am 21.1 - - - - ESE 13 15 7 8 1016.3 - -
31/04:20am 21.0 - - - - E 15 - 8 - - 1016.0 -
31/04:00am 21.0 - - - - E 15 19 8 10 1016.0 - -
31/03:30am 21.1 - - - - E 15 19 8 10 1015.8 - -
31/03:20am 20.9 - - - - E 15 - 8 - - 1015.9 -
31/03:00am 21.0 - - - - E 17 20 9 11 1016.0 - -
31/02:30am 21.0 - - - - E 15 20 8 11 1016.2 - -
31/02:20am 21.1 - - - - E 17 - 9 - - 1016.2 -
31/02:00am 21.0 - - - - E 17 20 9 11 1016.5 - -
31/01:30am 21.0 - - - - E 15 20 8 11 1016.8 - -
31/01:20am 21.0 - - - - E 17 - 9 - - 1016.8 -
31/01:00am 21.0 - - - - E 17 20 9 11 1017.1 - -
31/12:30am 21.1 - - - - E 19 22 10 12 1017.6 - -
31/12:20am 21.1 - - - - E 19 - 10 - - 1017.7 -
31/12:00am 21.2 - - - - E 20 24 11 13 1018.0 - -
 
Date/Time
EST
Temp
°C
App
Temp
°C
Dew
Point
Rel
Hum
%
Delta-T
°C
Wind Press
QNH
hPa
Press
MSL
hPa
Rain
since 9 am
mm
Dir
 
Spd
km/h
Gust
km/h
Spd
kts
Gust
kts
30/11:30pm 21.1 - - - - ESE 20 24 11 13 1018.3 - -
30/11:20pm 21.1 - - - - ESE 20 - 11 - - 1018.3 -
30/11:00pm 21.0 - - - - ESE 19 22 10 12 1018.6 - -
30/10:30pm 20.8 - - - - ESE 20 26 11 14 1018.6 - -
30/10:20pm 20.9 - - - - SE 19 - 10 - - 1018.5 -
30/10:00pm 20.8 - - - - SE 19 26 10 14 1018.9 - -
30/09:30pm 20.8 - - - - ESE 19 22 10 12 1018.8 - -
30/09:20pm 20.7 - - - - SE 20 - 11 - - 1018.7 -
30/09:00pm 20.7 - - - - SE 19 22 10 12 1018.8 - -
30/08:30pm 20.7 - - - - SE 19 24 10 13 1018.8 - -
30/08:20pm 20.7 - - - - SE 20 - 11 - - 1018.7 -
30/08:00pm 20.8 - - - - SE 19 22 10 12 1018.9 - -
30/07:30pm 20.9 - - - - SE 19 22 10 12 1018.5 - -
30/07:20pm 20.8 - - - - SE 20 - 11 - - 1018.2 -

Other Formats:

Comma delimited format used in spreadsheet applications
http://www.bom.gov.au/fwo/IDQ60801/IDQ60801.94371.axf

JavaScript Object Notation format (JSON) in row-major order
http://www.bom.gov.au/fwo/IDQ60801/IDQ60801.94371.json